Time;durP1;ratioP1;P1;durP2;ratioP2;P2;SDS_P1;SDS_P2;PMS_P1;PMS_P2;Temp;Humidity;BMP_temperature;BMP_pressure;BME280_temperature;BME280_humidity;BME280_pressure;Samples;Min_cycle;Max_cycle;Signal;HPM_P1;HPM_P2
2022/04/16 00:01:53;;;;;;;15.65;7.07;;;;;;;12.18;66.30;100408.38;5012064;28;20116;-75
2022/04/16 00:04:19;;;;;;;12.38;6.38;;;;;;;12.27;66.38;100412.13;5011828;28;20092;-77
2022/04/16 00:06:45;;;;;;;12.60;6.78;;;;;;;12.29;65.57;100419.91;5012089;28;20477;-76
2022/04/16 00:09:10;;;;;;;10.88;6.30;;;;;;;11.84;65.11;100376.25;5012339;28;20497;-77
2022/04/16 00:11:37;;;;;;;10.73;6.18;;;;;;;11.98;66.04;100417.28;5027133;28;20504;-79
2022/04/16 00:14:03;;;;;;;12.52;6.65;;;;;;;11.90;66.37;100423.00;5011776;28;20083;-75
2022/04/16 00:16:29;;;;;;;12.30;6.68;;;;;;;11.82;66.11;100413.34;5011902;28;20030;-76
2022/04/16 00:18:57;;;;;;;12.43;6.57;;;;;;;11.89;65.96;100418.69;5015514;28;20040;-76
2022/04/16 00:21:24;;;;;;;13.95;6.78;;;;;;;11.69;65.77;100372.41;5030380;28;20045;-75
2022/04/16 00:23:50;;;;;;;19.70;6.55;;;;;;;11.94;65.99;100412.81;5030153;28;20035;-80
2022/04/16 00:26:15;;;;;;;9.70;6.35;;;;;;;12.03;65.63;100424.31;5031388;28;20163;-77
2022/04/16 00:28:41;;;;;;;11.43;6.53;;;;;;;12.04;65.84;100413.16;5045722;28;20045;-76
2022/04/16 00:31:06;;;;;;;12.98;6.53;;;;;;;12.06;65.66;100425.28;5031378;28;20037;-77
2022/04/16 00:33:33;;;;;;;9.32;5.72;;;;;;;12.06;65.54;100422.72;5030650;28;20486;-76
2022/04/16 00:36:02;;;;;;;12.82;6.35;;;;;;;11.81;65.69;100385.72;5031050;28;20389;-77
2022/04/16 00:38:27;;;;;;;13.40;6.53;;;;;;;11.91;65.59;100417.91;5029729;28;20026;-75
2022/04/16 00:40:52;;;;;;;14.20;6.35;;;;;;;11.55;66.69;100413.34;5029447;28;20040;-77
2022/04/16 00:43:28;;;;;;;11.52;6.95;;;;;;;11.61;67.08;100421.28;5031202;28;20033;-79
2022/04/16 00:45:55;;;;;;;9.80;5.80;;;;;;;11.61;66.51;100420.41;5030594;28;20464;-76
2022/04/16 00:48:21;;;;;;;15.93;6.55;;;;;;;11.63;66.19;100429.09;5021749;28;20509;-79
2022/04/16 00:50:52;;;;;;;12.02;6.50;;;;;;;11.63;66.09;100429.09;5013063;28;20025;-77
2022/04/16 00:53:18;;;;;;;12.05;6.35;;;;;;;11.55;65.44;100438.31;5025583;28;20505;-76
2022/04/16 00:55:44;;;;;;;16.80;7.85;;;;;;;11.40;66.41;100442.16;5010560;28;20057;-77
2022/04/16 00:58:10;;;;;;;10.77;6.38;;;;;;;11.48;66.73;100450.16;5010249;28;20045;-77
2022/04/16 01:00:35;;;;;;;12.63;6.25;;;;;;;11.41;67.64;100451.66;5023613;28;20026;-76
2022/04/16 01:03:01;;;;;;;12.85;6.07;;;;;;;11.49;67.37;100447.63;5010341;28;20212;-77
2022/04/16 01:05:27;;;;;;;11.90;6.50;;;;;;;11.58;66.88;100438.41;5010160;28;20024;-75
2022/04/16 01:07:56;;;;;;;15.80;6.07;;;;;;;11.66;66.31;100426.59;5009423;28;20100;-74
2022/04/16 01:10:27;;;;;;;11.63;6.90;;;;;;;11.61;66.64;100441.97;5025443;28;20024;-74
2022/04/16 01:12:57;;;;;;;10.90;6.15;;;;;;;11.47;66.56;100445.81;5010015;28;20037;-73
2022/04/16 01:15:24;;;;;;;13.05;6.45;;;;;;;11.35;66.99;100448.84;5010009;28;20030;-74
2022/04/16 01:17:51;;;;;;;13.52;6.28;;;;;;;11.32;67.01;100447.06;5010201;28;20117;-74
2022/04/16 01:20:18;;;;;;;12.88;6.57;;;;;;;11.09;67.28;100420.44;5010165;28;20026;-75
2022/04/16 01:22:48;;;;;;;9.77;6.53;;;;;;;10.75;67.22;100398.59;5009942;28;20030;-73
2022/04/16 01:25:13;;;;;;;;;;;;;;;10.91;67.76;100430.16;5025738;28;20037;-75
2022/04/16 01:27:43;;;;;;;10.38;6.65;;;;;;;10.37;69.45;100392.97;5009613;28;19913;-73
2022/04/16 01:30:10;;;;;;;10.55;6.63;;;;;;;10.48;70.77;100422.63;5010058;28;20036;-72
2022/04/16 01:32:36;;;;;;;10.38;6.72;;;;;;;10.54;71.07;100427.13;5009858;28;20022;-75
2022/04/16 01:35:03;;;;;;;13.07;6.90;;;;;;;10.60;70.22;100436.81;5012442;28;20041;-76
2022/04/16 01:37:33;;;;;;;10.32;7.40;;;;;;;10.26;71.28;100402.00;5009941;28;20026;-75
2022/04/16 01:40:00;;;;;;;22.20;7.47;;;;;;;10.33;71.87;100422.91;5009884;28;20029;-74
2022/04/16 01:42:25;;;;;;;13.07;7.32;;;;;;;10.34;71.88;100410.88;5008253;28;20022;-74
2022/04/16 01:44:51;;;;;;;13.25;6.50;;;;;;;10.51;71.40;100404.66;5007235;28;20117;-74
2022/04/16 01:47:17;;;;;;;12.52;7.00;;;;;;;10.60;70.46;100395.50;5024826;28;20022;-75
2022/04/16 01:49:42;;;;;;;12.98;6.70;;;;;;;10.74;69.69;100402.03;5009677;28;20033;-73
2022/04/16 01:52:09;;;;;;;14.43;6.53;;;;;;;10.64;69.21;100369.84;5014899;28;20079;-75
2022/04/16 01:54:35;;;;;;;11.90;6.20;;;;;;;10.97;69.03;100404.53;5027525;28;20770;-73
2022/04/16 01:57:01;;;;;;;10.00;6.63;;;;;;;11.03;68.61;100394.41;5028450;28;20049;-75
2022/04/16 01:59:27;;;;;;;12.82;6.70;;;;;;;11.09;68.02;100384.28;5029238;28;20033;-77
2022/04/16 02:01:55;;;;;;;17.98;6.65;;;;;;;11.14;67.53;100385.31;5028577;28;20083;-76
2022/04/16 02:04:20;;;;;;;12.07;6.85;;;;;;;10.94;67.21;100374.31;5010305;28;20061;-77
2022/04/16 02:06:46;;;;;;;10.63;6.25;;;;;;;10.81;67.72;100385.91;5015976;28;20099;-75
2022/04/16 02:09:11;;;;;;;12.00;6.88;;;;;;;10.74;67.93;100381.38;5008913;28;20038;-76
2022/04/16 02:11:36;;;;;;;12.13;6.43;;;;;;;10.77;68.14;100393.53;5009312;28;20026;-72
2022/04/16 02:14:02;;;;;;;16.08;6.30;;;;;;;10.59;68.28;100373.97;5015643;28;20405;-76
2022/04/16 02:16:27;;;;;;;12.57;6.45;;;;;;;10.64;68.42;100394.78;5011877;28;20593;-75
2022/04/16 02:18:53;;;;;;;12.90;6.97;;;;;;;10.58;68.63;100395.44;5029872;28;20033;-76
2022/04/16 02:21:19;;;;;;;13.10;7.22;;;;;;;10.54;69.00;100396.13;5015716;28;20029;-75
2022/04/16 02:23:45;;;;;;;18.20;7.18;;;;;;;10.58;69.32;100395.44;5033615;28;20036;-74
2022/04/16 02:26:11;;;;;;;15.20;6.97;;;;;;;10.38;70.08;100388.69;5033316;28;20516;-74
2022/04/16 02:28:36;;;;;;;11.85;6.53;;;;;;;10.29;70.81;100384.91;5033526;28;20025;-74
2022/04/16 02:31:02;;;;;;;11.95;6.72;;;;;;;10.30;71.41;100378.03;5033584;28;20029;-74
2022/04/16 02:33:28;;;;;;;17.85;7.43;;;;;;;10.30;71.54;100385.78;5033422;28;20089;-74
2022/04/16 02:35:58;;;;;;;14.63;7.18;;;;;;;10.39;70.99;100383.56;5015404;28;20025;-72
2022/04/16 02:38:24;;;;;;;13.38;6.88;;;;;;;10.47;70.40;100382.16;5015274;28;20021;-74
2022/04/16 02:40:49;;;;;;;13.50;6.70;;;;;;;10.45;70.18;100365.72;5033380;28;20401;-75
2022/04/16 02:43:15;;;;;;;16.98;11.02;;;;;;;10.34;69.20;100354.09;5015368;28;20079;-76
2022/04/16 02:48:25;;;;;;;13.65;7.38;;;;;;;9.86;69.57;100350.66;5032976;28;20108;-75
2022/04/16 02:50:53;;;;;;;13.38;7.03;;;;;;;9.98;69.83;100370.88;5015309;28;20080;-75
2022/04/16 02:53:18;;;;;;;16.42;7.50;;;;;;;10.02;69.71;100384.78;5033057;28;20036;-74
2022/04/16 02:55:47;;;;;;;12.55;6.60;;;;;;;10.00;70.45;100384.69;5033097;28;20120;-77
2022/04/16 02:58:13;;;;;;;11.27;6.75;;;;;;;9.90;70.83;100387.75;5015233;28;20112;-74
2022/04/16 03:00:38;;;;;;;13.95;7.05;;;;;;;9.72;70.98;100390.50;5033210;28;20037;-74
2022/04/16 03:03:04;;;;;;;10.50;6.50;;;;;;;9.29;71.87;100337.28;5033159;28;20033;-75
2022/04/16 03:05:30;;;;;;;11.55;6.13;;;;;;;9.31;72.93;100384.56;5032283;28;20496;-75
2022/04/16 03:07:55;;;;;;;12.00;6.78;;;;;;;9.05;73.47;100351.78;5032439;28;20497;-74
2022/04/16 03:10:20;;;;;;;9.73;6.65;;;;;;;9.16;73.69;100367.69;5032705;28;20032;-74
2022/04/16 03:12:52;;;;;;;12.77;6.70;;;;;;;8.96;73.37;100355.66;4971132;28;20097;-74
2022/04/16 03:18:05;;;;;;;11.02;6.60;;;;;;;9.09;74.21;100393.13;4971045;28;20081;-76
2022/04/16 03:20:31;;;;;;;8.98;6.40;;;;;;;8.66;74.13;100333.88;4971319;28;20034;-76
2022/04/16 03:23:00;;;;;;;12.48;6.82;;;;;;;9.03;74.34;100404.94;4955013;28;20031;-75
2022/04/16 03:25:27;;;;;;;12.65;8.13;;;;;;;8.84;75.89;100394.66;4970924;28;20482;-73
2022/04/16 03:27:54;;;;;;;13.60;7.57;;;;;;;8.80;77.11;100414.25;4970935;28;20093;-75
2022/04/16 03:30:19;;;;;;;11.27;7.82;;;;;;;8.86;77.42;100416.19;4970424;28;20046;-75
2022/04/16 03:32:48;;;;;;;11.57;7.38;;;;;;;8.93;77.47;100418.22;4970132;28;20124;-75
2022/04/16 03:35:13;;;;;;;11.93;7.40;;;;;;;9.00;77.51;100420.25;4970811;28;20027;-75
2022/04/16 03:37:39;;;;;;;12.82;7.45;;;;;;;9.07;76.42;100429.09;4970642;28;20034;-75
2022/04/16 03:40:05;;;;;;;12.63;7.10;;;;;;;8.95;77.38;100421.75;4971024;28;20483;-72
2022/04/16 03:42:31;;;;;;;10.57;7.93;;;;;;;9.06;77.41;100437.66;4970906;28;20086;-75
2022/04/16 03:44:58;;;;;;;15.77;7.53;;;;;;;9.10;76.83;100429.25;4951121;28;20578;-76
2022/04/16 03:47:24;;;;;;;14.68;7.45;;;;;;;9.19;76.69;100439.03;4951186;29;20038;-75
2022/04/16 03:49:51;;;;;;;16.13;7.82;;;;;;;9.13;76.56;100446.50;4955239;28;20042;-76
2022/04/16 03:52:17;;;;;;;14.45;7.82;;;;;;;9.06;76.77;100435.94;4993337;28;20030;-80
2022/04/16 04:00:11;;;;;;;13.63;8.18;;;;;;;9.14;76.75;100428.53;5009578;28;20806;-76
2022/04/16 04:02:38;;;;;;;16.73;9.90;;;;;;;9.14;77.10;100436.28;5009526;28;20113;-77
2022/04/16 04:05:05;;;;;;;13.48;8.05;;;;;;;8.81;78.97;100439.19;5009415;28;20070;-75
2022/04/16 04:07:30;;;;;;;15.55;9.45;;;;;;;8.56;80.14;100434.63;5009337;28;20030;-76
2022/04/16 04:09:57;;;;;;;34.78;19.55;;;;;;;8.26;80.37;100401.53;5009288;28;20052;-75
2022/04/16 04:12:22;;;;;;;34.38;19.23;;;;;;;8.28;80.53;100435.06;5008814;28;20037;-75
2022/04/16 04:14:48;;;;;;;24.42;14.52;;;;;;;8.34;80.94;100431.06;5009898;28;20060;-74
2022/04/16 04:17:14;;;;;;;27.67;14.25;;;;;;;8.48;80.94;100444.56;5028572;28;20491;-76
2022/04/16 04:19:42;;;;;;;21.00;12.15;;;;;;;8.46;81.42;100437.56;5031529;28;20037;-76
2022/04/16 04:22:09;;;;;;;18.95;11.80;;;;;;;8.60;81.37;100440.78;5031458;28;20026;-76
2022/04/16 04:24:39;;;;;;;21.58;13.23;;;;;;;8.70;80.85;100425.81;5030993;28;20058;-76
2022/04/16 04:27:06;;;;;;;18.95;12.23;;;;;;;8.94;80.07;100444.84;5031281;28;20030;-76
2022/04/16 04:29:33;;;;;;;21.73;12.32;;;;;;;9.01;79.10;100442.59;5030979;28;20488;-76
2022/04/16 04:31:59;;;;;;;28.73;12.93;;;;;;;9.00;79.15;100432.25;5029903;28;20506;-76
2022/04/16 04:34:25;;;;;;;20.50;11.63;;;;;;;9.00;80.68;100440.84;5030892;28;20033;-73
2022/04/16 04:36:50;;;;;;;24.35;11.65;;;;;;;9.06;82.03;100446.25;5031338;28;20547;-74
2022/04/16 04:39:16;;;;;;;15.48;10.80;;;;;;;9.08;82.10;100428.28;5030610;28;20108;-74
2022/04/16 04:41:43;;;;;;;16.45;10.70;;;;;;;9.35;81.50;100444.00;4995385;28;20041;-74
2022/04/16 04:44:13;;;;;;;14.95;10.40;;;;;;;9.09;81.70;100395.69;5030852;28;20021;-74
2022/04/16 04:46:40;;;;;;;18.08;11.50;;;;;;;9.33;82.19;100439.63;5031209;28;20037;-74
2022/04/16 04:49:08;;;;;;;16.67;12.02;;;;;;;9.35;83.12;100435.41;5029831;28;20132;-74
2022/04/16 04:51:37;;;;;;;19.23;11.65;;;;;;;9.43;84.00;100428.00;5031135;28;20029;-73
2022/04/16 04:54:03;;;;;;;18.83;11.15;;;;;;;9.44;85.24;100428.06;5013064;28;20754;-73
2022/04/16 04:56:29;;;;;;;18.65;11.55;;;;;;;9.25;88.64;100399.81;5030651;28;20029;-76
2022/04/16 04:58:55;;;;;;;18.98;11.73;;;;;;;9.35;90.63;100414.81;5031002;28;20381;-72
2022/04/16 05:01:21;;;;;;;16.73;10.80;;;;;;;9.48;91.33;100429.97;5030702;28;20037;-76
2022/04/16 05:03:46;;;;;;;18.60;11.68;;;;;;;9.42;91.97;100416.81;5030709;28;20033;-73
2022/04/16 05:06:11;;;;;;;16.27;11.27;;;;;;;9.51;93.29;100434.34;5030872;28;20030;-74
2022/04/16 05:08:37;;;;;;;21.30;11.75;;;;;;;9.54;92.16;100422.47;5030252;28;20088;-73
2022/04/16 05:11:02;;;;;;;17.25;10.70;;;;;;;9.66;92.17;100440.13;5030624;28;20088;-74
2022/04/16 05:13:28;;;;;;;20.02;11.00;;;;;;;9.70;91.28;100417.91;5030455;28;20091;-74
2022/04/16 05:15:53;;;;;;;19.55;10.27;;;;;;;9.87;88.68;100424.63;5030404;28;20037;-74
2022/04/16 05:18:18;;;;;;;19.23;10.93;;;;;;;9.95;85.71;100422.31;5030488;28;20175;-75
2022/04/16 05:20:45;;;;;;;20.02;11.23;;;;;;;10.07;86.06;100421.94;5030449;28;20025;-76
2022/04/16 05:23:11;;;;;;;20.13;10.75;;;;;;;10.05;85.61;100390.03;5030318;28;20029;-74
2022/04/16 05:25:37;;;;;;;18.17;11.35;;;;;;;10.33;85.19;100415.16;5012670;28;20056;-75
2022/04/16 05:28:03;;;;;;;19.77;11.38;;;;;;;10.55;84.01;100417.69;5030109;28;20500;-73
2022/04/16 05:30:34;;;;;;;16.13;11.80;;;;;;;10.74;84.26;100434.72;5030387;28;20040;-71
2022/04/16 05:33:05;;;;;;;15.18;10.35;;;;;;;10.88;83.05;100435.19;5030043;28;20064;-73
2022/04/16 05:35:32;;;;;;;20.08;11.63;;;;;;;10.83;82.23;100401.47;5028413;28;20038;-74
2022/04/16 05:37:59;;;;;;;17.08;11.13;;;;;;;11.13;82.17;100421.44;5030398;28;20116;-75
2022/04/16 05:40:25;;;;;;;22.55;12.02;;;;;;;11.22;80.60;100426.03;5030328;28;20061;-79
2022/04/16 05:42:50;;;;;;;21.23;11.30;;;;;;;11.35;80.52;100430.75;5030203;28;20477;-74
2022/04/16 05:45:16;;;;;;;18.08;10.77;;;;;;;11.24;77.42;100391.66;5030077;28;20029;-74
2022/04/16 05:47:43;;;;;;;16.15;10.98;;;;;;;11.45;77.46;100417.34;5030210;28;20029;-74
2022/04/16 05:50:09;;;;;;;21.48;11.85;;;;;;;11.49;78.27;100402.81;5012050;28;20790;-74
2022/04/16 05:52:35;;;;;;;20.90;12.52;;;;;;;11.47;80.83;100396.69;5030354;28;20037;-74
2022/04/16 05:55:01;;;;;;;19.40;12.70;;;;;;;11.65;82.64;100401.56;5032448;28;20043;-74
2022/04/16 05:57:28;;;;;;;16.80;12.80;;;;;;;11.69;83.96;100413.78;5033885;28;20060;-75
2022/04/16 05:59:55;;;;;;;19.23;12.38;;;;;;;11.64;83.01;100400.69;5033871;28;20109;-76
2022/04/16 06:02:21;;;;;;;22.58;13.32;;;;;;;11.72;83.40;100416.44;5033980;28;20091;-75
2022/04/16 06:04:46;;;;;;;20.85;13.65;;;;;;;11.43;82.53;100376.75;5033667;28;20037;-79
2022/04/16 06:07:12;;;;;;;17.67;13.82;;;;;;;11.68;83.64;100396.50;5027886;28;20029;-77
2022/04/16 06:09:37;;;;;;;17.20;13.35;;;;;;;11.86;80.80;100411.69;5006879;28;20109;-77
2022/04/16 06:12:04;;;;;;;18.80;12.77;;;;;;;11.75;84.56;100406.22;5014176;28;20041;-78
2022/04/16 06:14:31;;;;;;;22.65;13.52;;;;;;;11.84;83.38;100395.25;5032333;28;20061;-77
2022/04/16 06:16:57;;;;;;;22.02;13.13;;;;;;;11.95;80.46;100406.81;5028492;28;20033;-77
2022/04/16 06:19:23;;;;;;;23.88;14.82;;;;;;;12.08;78.55;100413.25;5028471;28;20033;-76
2022/04/16 06:21:49;;;;;;;23.20;14.18;;;;;;;12.00;78.41;100381.13;5032533;28;20025;-74
2022/04/16 06:24:14;;;;;;;20.10;14.43;;;;;;;12.28;79.29;100415.56;5032899;28;20070;-76
2022/04/16 06:26:42;;;;;;;23.23;15.50;;;;;;;12.40;79.59;100415.91;5033035;28;20025;-76
2022/04/16 06:29:07;;;;;;;21.27;13.38;;;;;;;12.51;77.73;100421.41;5032974;28;20030;-77
2022/04/16 06:31:33;;;;;;;22.27;14.77;;;;;;;12.60;77.40;100423.38;5032706;28;20034;-73
2022/04/16 06:33:58;;;;;;;22.95;14.90;;;;;;;12.72;76.30;100421.13;5032350;28;20030;-76
2022/04/16 06:36:23;;;;;;;23.92;15.18;;;;;;;12.72;75.40;100404.69;5031078;28;20026;-76
2022/04/16 06:38:49;;;;;;;24.95;15.38;;;;;;;12.81;74.33;100398.88;5015201;28;20369;-76
2022/04/16 06:41:16;;;;;;;18.83;14.60;;;;;;;12.95;74.05;100397.53;5015023;28;20392;-77
2022/04/16 06:43:42;;;;;;;21.13;13.32;;;;;;;13.07;73.18;100396.97;5033062;28;20026;-77
2022/04/16 06:46:07;;;;;;;21.73;13.68;;;;;;;13.37;72.97;100419.31;5032182;28;20049;-77
2022/04/16 06:48:33;;;;;;;22.48;12.68;;;;;;;13.48;72.13;100411.84;5008777;28;20030;-78
2022/04/16 06:50:59;;;;;;;19.98;12.02;;;;;;;13.61;70.73;100411.28;5032797;28;20028;-77
2022/04/16 06:53:27;;;;;;;18.02;11.23;;;;;;;13.69;69.57;100398.50;5023364;28;20109;-77
2022/04/16 06:55:53;;;;;;;14.30;10.35;;;;;;;13.71;68.04;100404.63;5018569;28;20049;-80
2022/04/16 06:58:19;;;;;;;16.38;10.05;;;;;;;13.82;67.77;100404.84;5028619;28;20053;-77
2022/04/16 07:00:44;;;;;;;15.43;9.07;;;;;;;14.02;68.09;100405.31;5032476;28;20029;-76
2022/04/16 07:03:10;;;;;;;14.63;10.40;;;;;;;14.16;67.97;100413.38;5032164;28;20025;-77
2022/04/16 07:05:35;;;;;;;26.70;10.48;;;;;;;14.16;68.88;100409.06;5032259;28;20101;-77
2022/04/16 07:08:00;;;;;;;15.15;10.15;;;;;;;14.21;69.33;100399.63;5032378;28;20014;-77
2022/04/16 07:10:26;;;;;;;23.13;10.70;;;;;;;14.25;68.45;100390.19;5032388;28;20460;-78
2022/04/16 07:12:51;;;;;;;13.15;9.85;;;;;;;14.24;70.24;100391.94;5032064;28;20022;-77
2022/04/16 07:15:17;;;;;;;20.48;9.82;;;;;;;14.25;69.57;100379.81;5030932;28;20021;-77
2022/04/16 07:17:45;;;;;;;16.80;10.23;;;;;;;14.40;69.48;100390.53;5031566;28;20048;-75
2022/04/16 07:20:10;;;;;;;15.32;9.25;;;;;;;14.37;68.73;100374.88;5030671;28;20017;-77
2022/04/16 07:22:37;;;;;;;14.05;9.48;;;;;;;14.45;69.86;100379.34;5032191;28;20547;-73
2022/04/16 07:25:06;;;;;;;15.63;9.05;;;;;;;14.59;69.70;100380.47;5032016;28;20057;-73
2022/04/16 07:27:32;;;;;;;14.43;8.70;;;;;;;14.62;68.36;100377.06;5032037;28;20029;-75
2022/04/16 07:29:58;;;;;;;13.77;8.98;;;;;;;14.74;68.82;100376.44;5013665;28;20518;-76
2022/04/16 07:32:27;;;;;;;13.98;8.43;;;;;;;14.87;69.78;100368.03;5032027;28;20109;-75
2022/04/16 07:34:53;;;;;;;16.45;7.72;;;;;;;14.91;67.99;100354.22;5031777;28;20084;-76
2022/04/16 07:37:19;;;;;;;11.43;7.25;;;;;;;14.99;67.26;100350.06;5031692;28;20476;-77
2022/04/16 07:39:45;;;;;;;15.70;7.13;;;;;;;15.09;66.47;100345.00;5031748;28;20478;-77
2022/04/16 07:42:10;;;;;;;8.23;6.28;;;;;;;15.12;65.69;100343.31;5031700;28;20029;-79
2022/04/16 07:44:36;;;;;;;11.45;6.70;;;;;;;15.12;65.29;100335.50;5031871;28;20026;-79
2022/04/16 07:47:02;;;;;;;17.40;6.68;;;;;;;15.20;66.22;100340.84;5013974;28;20081;-78
2022/04/16 07:49:28;;;;;;;15.15;6.97;;;;;;;15.34;66.91;100349.75;5013796;28;21768;-81
2022/04/16 07:51:54;;;;;;;11.40;6.70;;;;;;;15.42;67.15;100341.19;5029836;28;20029;-79
2022/04/16 07:54:19;;;;;;;12.77;7.63;;;;;;;15.60;64.10;100345.78;5031401;28;20056;-79
2022/04/16 07:56:45;;;;;;;12.27;5.45;;;;;;;15.63;61.68;100328.47;5031298;28;20025;-77
2022/04/16 07:59:11;;;;;;;10.30;5.10;;;;;;;15.80;60.21;100349.53;5029730;28;20021;-79
2022/04/16 08:01:37;;;;;;;11.68;5.18;;;;;;;15.87;59.79;100342.72;5031503;28;20029;-77
2022/04/16 08:04:03;;;;;;;12.55;5.10;;;;;;;15.99;59.24;100347.22;5031632;28;20037;-77
2022/04/16 08:06:28;;;;;;;11.85;5.57;;;;;;;15.89;58.57;100340.13;5031113;28;20022;-76
2022/04/16 08:09:00;;;;;;;15.32;5.82;;;;;;;15.92;60.31;100334.97;5031179;28;20033;-77
2022/04/16 08:11:30;;;;;;;9.80;4.82;;;;;;;16.02;59.57;100342.03;5030035;28;20022;-77
2022/04/16 08:13:55;;;;;;;11.90;5.82;;;;;;;15.97;59.72;100302.91;5028821;28;20390;-75
2022/04/16 08:16:20;;;;;;;8.80;4.93;;;;;;;16.30;58.10;100338.03;5013266;28;20026;-78
2022/04/16 08:18:46;;;;;;;8.98;5.72;;;;;;;16.45;58.15;100339.94;5030442;28;20021;-77
2022/04/16 08:21:11;;;;;;;12.50;4.75;;;;;;;16.58;57.44;100340.06;5027544;28;20527;-76
2022/04/16 08:23:43;;;;;;;11.45;5.13;;;;;;;16.66;56.85;100331.47;5028791;28;20116;-78
2022/04/16 08:26:10;;;;;;;8.95;4.25;;;;;;;16.70;56.64;100319.34;5030679;28;20025;-77
2022/04/16 08:28:35;;;;;;;8.52;4.57;;;;;;;16.72;55.91;100301.09;5028901;28;20021;-77
2022/04/16 08:31:02;;;;;;;8.30;4.03;;;;;;;16.74;54.84;100331.53;5030512;28;20374;-78
2022/04/16 08:33:28;;;;;;;7.70;4.28;;;;;;;16.74;56.09;100320.25;5030461;28;20029;-76
2022/04/16 08:35:54;;;;;;;9.38;4.18;;;;;;;16.99;54.64;100323.97;5012586;28;20029;-77
2022/04/16 08:38:19;;;;;;;11.85;3.90;;;;;;;16.97;53.40;100308.31;5030712;28;20034;-76
2022/04/16 08:40:45;;;;;;;8.57;4.00;;;;;;;16.86;53.22;100270.81;5030190;28;20127;-79
2022/04/16 08:43:10;;;;;;;10.63;4.43;;;;;;;17.20;53.13;100314.56;5029612;28;20055;-77
2022/04/16 08:45:40;;;;;;;15.80;8.88;;;;;;;17.29;52.85;100304.19;5030415;28;20032;-75
2022/04/16 08:48:06;;;;;;;12.07;4.70;;;;;;;17.22;53.42;100264.16;5027752;28;20038;-77
2022/04/16 08:50:32;;;;;;;7.85;3.90;;;;;;;17.52;52.79;100306.06;5030268;28;20503;-77
2022/04/16 08:52:59;;;;;;;6.78;4.07;;;;;;;17.45;52.74;100292.97;5030009;28;20488;-76
2022/04/16 08:55:24;;;;;;;8.35;4.50;;;;;;;17.55;53.19;100306.94;4987707;28;20065;-77
2022/04/16 08:57:53;;;;;;;9.23;4.03;;;;;;;17.63;53.03;100301.75;4987810;28;20093;-77
2022/04/16 09:00:19;;;;;;;6.10;3.78;;;;;;;17.69;52.44;100300.94;4971764;28;20137;-74
2022/04/16 09:03:11;;;;;;;6.65;3.63;;;;;;;17.76;51.89;100285.31;4987848;28;20862;-79
2022/04/16 09:05:36;;;;;;;10.68;4.78;;;;;;;17.78;52.54;100287.91;4950297;29;20047;-78
2022/04/16 09:08:04;;;;;;;8.38;4.38;;;;;;;17.92;51.40;100290.59;4950259;29;20071;-81
2022/04/16 09:10:31;;;;;;;8.45;4.43;;;;;;;18.05;51.57;100291.53;4947883;29;20126;-76
2022/04/16 09:13:01;;;;;;;7.18;4.13;;;;;;;18.11;50.85;100281.13;4940826;29;20435;-77
2022/04/16 09:15:28;;;;;;;8.02;3.97;;;;;;;18.10;51.52;100267.16;4942510;29;20062;-76
2022/04/16 09:18:09;;;;;;;9.73;4.68;;;;;;;18.18;52.03;100272.44;4949438;29;20086;-77
2022/04/16 09:20:37;;;;;;;9.05;4.05;;;;;;;18.36;50.88;100265.50;4947004;29;20114;-75
2022/04/16 09:23:15;;;;;;;9.20;3.70;;;;;;;18.36;50.02;100262.88;4937090;29;20051;-77
2022/04/16 09:25:42;;;;;;;6.22;3.95;;;;;;;18.40;49.17;100267.22;4942078;29;20041;-75
2022/04/16 09:28:08;;;;;;;9.02;4.20;;;;;;;18.44;48.45;100266.34;4949610;28;20035;-79
2022/04/16 09:30:34;;;;;;;12.40;4.22;;;;;;;18.53;48.32;100252.44;4922640;29;20107;-76
2022/04/16 09:33:01;;;;;;;10.40;4.32;;;;;;;18.66;48.40;100262.03;4938442;28;20082;-78
2022/04/16 09:35:35;;;;;;;8.45;4.03;;;;;;;18.63;48.43;100248.97;4904777;29;20055;-77
2022/04/16 09:38:02;;;;;;;8.30;4.20;;;;;;;18.56;48.61;100216.69;4908508;29;20040;-79
2022/04/16 09:40:33;;;;;;;9.30;4.25;;;;;;;18.95;48.74;100255.09;4911783;29;20040;-76
2022/04/16 09:43:01;;;;;;;6.47;3.97;;;;;;;19.19;47.02;100243.69;4993121;28;20497;-76
2022/04/16 09:45:27;;;;;;;10.48;4.63;;;;;;;19.26;45.38;100249.81;4976601;28;20045;-77
2022/04/16 09:47:53;;;;;;;7.40;4.18;;;;;;;19.23;46.17;100251.53;5017928;28;20096;-78
2022/04/16 09:50:21;;;;;;;9.85;4.03;;;;;;;19.16;46.18;100223.63;5026341;28;20029;-78
2022/04/16 09:52:55;;;;;;;6.07;3.92;;;;;;;19.36;46.08;100246.28;5015294;28;20058;-80
2022/04/16 09:55:23;;;;;;;8.02;3.72;;;;;;;19.38;45.07;100242.78;5014487;28;20045;-76
2022/04/16 09:57:57;;;;;;;12.73;4.45;;;;;;;19.55;44.57;100249.69;5016955;28;20064;-72
2022/04/16 10:00:22;;;;;;;7.38;3.95;;;;;;;19.51;44.05;100240.97;5024663;28;20125;-77
2022/04/16 10:02:49;;;;;;;6.95;3.40;;;;;;;19.78;44.56;100254.88;5021356;28;20057;-77
2022/04/16 10:05:15;;;;;;;11.27;4.07;;;;;;;20.03;44.71;100252.16;5043654;28;20025;-77
2022/04/16 10:07:43;;;;;;;13.95;4.00;;;;;;;20.21;44.37;100245.91;5037894;28;20030;-76
2022/04/16 10:10:17;;;;;;;10.10;3.70;;;;;;;20.40;43.94;100236.19;5030407;28;20083;-82
2022/04/16 10:12:59;;;;;;;7.40;4.10;;;;;;;20.52;42.61;100240.47;5029453;28;20047;-78
2022/04/16 10:15:30;;;;;;;8.40;3.60;;;;;;;20.55;43.08;100221.22;5029927;28;20037;-79
2022/04/16 10:17:56;;;;;;;6.18;3.70;;;;;;;20.74;40.88;100220.22;5032442;28;20385;-76
2022/04/16 10:20:23;;;;;;;7.88;3.83;;;;;;;20.96;40.54;100223.50;5047198;28;20029;-79
2022/04/16 10:23:03;;;;;;;5.15;3.33;;;;;;;21.10;39.20;100222.50;5042425;28;20027;-79
2022/04/16 10:25:34;;;;;;;6.07;3.60;;;;;;;21.09;38.40;100224.25;5030030;28;20048;-82
2022/04/16 10:28:04;;;;;;;8.27;3.95;;;;;;;21.27;39.27;100217.06;5029828;28;20033;-79
2022/04/16 10:30:40;;;;;;;6.07;3.78;;;;;;;21.32;42.06;100215.25;5029547;28;20527;-79
2022/04/16 10:33:17;;;;;;;11.15;4.22;;;;;;;21.38;41.73;100211.69;5029590;28;20037;-79
2022/04/16 10:35:52;;;;;;;9.88;4.60;;;;;;;21.42;42.77;100216.91;5027155;28;20132;-85
2022/04/16 10:38:22;;;;;;;7.93;3.67;;;;;;;21.38;42.01;100198.56;5009537;28;20477;-83
2022/04/16 10:40:59;;;;;;;7.57;4.10;;;;;;;21.59;41.71;100205.34;5010901;28;20025;-87
2022/04/16 10:43:32;;;;;;;6.35;3.95;;;;;;;21.63;41.24;100207.91;5012606;28;20477;-81
2022/04/16 10:46:06;;;;;;;7.93;3.65;;;;;;;21.64;42.12;100203.50;5020911;28;20030;-81
2022/04/16 10:48:33;;;;;;;6.53;4.00;;;;;;;21.55;41.60;100206.25;5015689;28;20571;-81
2022/04/16 10:50:59;;;;;;;11.55;4.35;;;;;;;21.63;40.03;100210.53;5019346;28;20435;-82
2022/04/16 10:53:36;;;;;;;14.15;5.93;;;;;;;21.71;35.59;100202.53;5027826;28;20086;-85
2022/04/16 10:56:22;;;;;;;11.32;4.30;;;;;;;21.95;33.95;100198.69;5031955;28;20049;-79
2022/04/16 10:58:59;;;;;;;23.02;6.18;;;;;;;22.15;36.59;100194.91;4989908;28;20061;-83
2022/04/16 11:01:26;;;;;;;15.65;5.22;;;;;;;22.33;39.11;100196.41;4989486;28;20125;-86
2022/04/16 11:03:55;;;;;;;19.63;5.15;;;;;;;22.43;36.82;100194.50;4985936;28;20081;-86
2022/04/16 11:06:20;;;;;;;13.35;4.10;;;;;;;22.31;35.05;100166.63;4973560;28;20051;-85
2022/04/16 11:08:47;;;;;;;11.95;4.22;;;;;;;22.41;34.78;100191.91;4989830;28;20026;-86
2022/04/16 11:11:14;;;;;;;10.02;3.72;;;;;;;22.54;35.01;100189.06;4982858;28;21559;-84
2022/04/16 11:13:42;;;;;;;17.80;6.05;;;;;;;22.55;34.57;100175.03;4975773;28;20046;-83
2022/04/16 11:16:09;;;;;;;23.25;5.75;;;;;;;22.53;34.21;100175.06;4972128;28;20042;-83
2022/04/16 11:18:45;;;;;;;14.30;5.00;;;;;;;22.63;36.30;100186.28;4969871;28;20170;-84
2022/04/16 11:21:18;;;;;;;24.23;5.47;;;;;;;22.58;34.53;100173.22;4970445;28;20035;-84
2022/04/16 11:23:47;;;;;;;12.65;4.38;;;;;;;22.76;34.24;100179.88;4970169;28;20122;-83
2022/04/16 11:34:32;;;;;;;6.43;3.97;;;;;;;22.48;36.63;100161.13;4996107;28;20048;-83
2022/04/16 11:36:58;;;;;;;11.75;4.03;;;;;;;22.66;36.34;100170.44;5010374;28;20181;-85
2022/04/16 11:39:30;;;;;;;15.73;4.97;;;;;;;22.63;37.85;100167.88;4993852;28;20046;-83